createdAt,value
2022-09-12T00:01:16.367Z,7.70
2022-09-12T00:03:44.088Z,7.60
2022-09-12T00:06:24.172Z,7.60
2022-09-12T00:08:54.252Z,7.50
2022-09-12T00:11:21.933Z,7.50
2022-09-12T00:13:49.489Z,7.50
2022-09-12T00:16:20.596Z,7.50
2022-09-12T00:18:48.736Z,7.40
2022-09-12T00:21:17.929Z,7.40
2022-09-12T00:23:46.518Z,7.40
2022-09-12T00:26:14.441Z,7.30
2022-09-12T00:28:42.857Z,7.30
2022-09-12T00:31:13.907Z,6.40
2022-09-12T00:33:41.837Z,7.20
2022-09-12T00:36:16.482Z,7.80
2022-09-12T00:38:45.283Z,7.20
2022-09-12T00:41:16.067Z,6.90
2022-09-12T00:43:47.196Z,7.20
2022-09-12T00:46:19.894Z,7.20
2022-09-12T00:48:52.107Z,7.20
2022-09-12T00:51:20.177Z,7.20
2022-09-12T00:53:51.693Z,6.70
2022-09-12T00:56:20.442Z,6.50
2022-09-12T00:59:03.500Z,7.80
2022-09-12T01:01:32.789Z,7.20
2022-09-12T01:04:02.013Z,7.20
2022-09-12T01:06:36.669Z,8.10
2022-09-12T01:09:05.133Z,8.10
2022-09-12T01:11:38.721Z,7.10
2022-09-12T01:14:07.506Z,7.00
2022-09-12T01:16:38.706Z,7.00
2022-09-12T01:19:29.459Z,7.00
2022-09-12T01:22:34.798Z,7.00
2022-09-12T01:25:20.696Z,7.00
2022-09-12T01:28:06.719Z,7.10
2022-09-12T01:31:01.035Z,7.10
2022-09-12T01:34:10.624Z,5.90
2022-09-12T01:37:17.335Z,7.10
2022-09-12T01:40:16.392Z,7.10
2022-09-12T01:43:17.537Z,7.00
2022-09-12T01:46:02.019Z,7.00
2022-09-12T01:49:14.045Z,7.00
2022-09-12T01:51:54.613Z,7.00
2022-09-12T01:54:47.329Z,7.10
2022-09-12T01:57:22.600Z,7.60
2022-09-12T01:59:54.738Z,7.10
2022-09-12T02:02:36.930Z,7.70
2022-09-12T02:05:16.711Z,7.00
2022-09-12T02:07:57.331Z,7.20
2022-09-12T02:10:32.546Z,7.10
2022-09-12T02:13:10.730Z,7.00
2022-09-12T02:15:47.833Z,7.00
2022-09-12T02:18:18.489Z,7.10
2022-09-12T02:20:49.242Z,7.10
2022-09-12T02:23:31.124Z,7.90
2022-09-12T02:26:06.893Z,5.70
2022-09-12T02:28:40.443Z,7.00
2022-09-12T02:31:39.892Z,7.00
2022-09-12T02:34:27.940Z,7.00
2022-09-12T02:37:13.971Z,6.90
2022-09-12T02:39:45.152Z,7.00
2022-09-12T02:42:15.227Z,7.00
2022-09-12T02:44:43.472Z,7.00
2022-09-12T02:47:27.455Z,7.00
2022-09-12T02:49:55.966Z,6.90
2022-09-12T02:52:23.440Z,6.90
2022-09-12T02:54:52.065Z,7.00
2022-09-12T02:57:23.229Z,7.00
2022-09-12T02:59:54.600Z,6.90
2022-09-12T03:02:28.462Z,6.90
2022-09-12T03:05:08.615Z,7.90
2022-09-12T03:07:42.747Z,6.70
2022-09-12T03:10:39.552Z,6.60
2022-09-12T03:13:22.077Z,6.70
2022-09-12T03:16:13.197Z,6.70
2022-09-12T03:19:12.863Z,6.90
2022-09-12T03:22:03.427Z,7.10
2022-09-12T03:24:37.816Z,7.10
2022-09-12T03:27:16.490Z,7.10
2022-09-12T03:29:46.451Z,7.10
2022-09-12T03:32:14.632Z,7.20
2022-09-12T03:34:42.000Z,7.10
2022-09-12T03:37:09.572Z,7.10
2022-09-12T03:39:37.189Z,7.10
2022-09-12T03:42:04.769Z,7.00
2022-09-12T03:44:32.493Z,7.00
2022-09-12T03:46:59.872Z,7.60
2022-09-12T03:49:27.239Z,7.80
2022-09-12T03:51:54.683Z,6.90
2022-09-12T03:54:22.177Z,6.90
2022-09-12T03:56:49.543Z,6.90
2022-09-12T03:59:17.012Z,6.80
2022-09-12T04:01:44.354Z,6.80
2022-09-12T04:04:12.124Z,6.80
2022-09-12T04:06:39.639Z,6.80
2022-09-12T04:09:06.971Z,6.80
2022-09-12T04:11:35.932Z,6.90
2022-09-12T04:14:03.342Z,7.30
2022-09-12T04:16:30.855Z,7.00
2022-09-12T04:18:58.370Z,6.90
2022-09-12T04:21:26.834Z,6.90
2022-09-12T04:23:54.246Z,6.90
2022-09-12T04:26:21.819Z,6.90
2022-09-12T04:28:53.785Z,6.90
2022-09-12T04:31:22.796Z,6.90
2022-09-12T04:33:58.560Z,6.90
2022-09-12T04:36:27.090Z,6.90
2022-09-12T04:38:55.299Z,7.00
2022-09-12T04:41:25.650Z,7.50
2022-09-12T04:43:59.046Z,7.00
2022-09-12T04:46:27.125Z,7.00
2022-09-12T04:48:56.998Z,7.10
2022-09-12T04:51:36.699Z,7.10
2022-09-12T04:54:07.166Z,7.10
2022-09-12T04:56:39.972Z,7.10
2022-09-12T04:59:09.394Z,7.10
2022-09-12T05:01:37.341Z,7.20
2022-09-12T05:04:06.402Z,7.20
2022-09-12T05:06:56.677Z,7.20
2022-09-12T05:09:37.025Z,7.40
2022-09-12T05:12:07.036Z,8.50
2022-09-12T05:14:35.637Z,7.40
2022-09-12T05:17:27.661Z,7.40
2022-09-12T05:19:57.151Z,7.50
2022-09-12T05:22:26.559Z,7.70
2022-09-12T05:24:54.401Z,7.40
2022-09-12T05:27:22.335Z,7.60
2022-09-12T05:29:51.498Z,7.60
2022-09-12T05:32:55.990Z,6.20
2022-09-12T05:35:26.296Z,7.20
2022-09-12T05:37:54.323Z,7.90
2022-09-12T05:40:22.432Z,7.90
2022-09-12T05:42:52.490Z,8.20
2022-09-12T05:45:24.400Z,8.10
2022-09-12T05:47:52.266Z,8.10
2022-09-12T05:50:25.479Z,8.40
2022-09-12T05:52:55.579Z,8.90
2022-09-12T05:55:25.215Z,8.80
2022-09-12T05:57:57.257Z,8.60
2022-09-12T06:00:31.532Z,8.20
2022-09-12T06:05:54.037Z,8.90
2022-09-12T06:08:29.179Z,9.00
2022-09-12T06:11:10.069Z,9.00
2022-09-12T06:13:40.605Z,9.10
2022-09-12T06:19:09.655Z,9.40
2022-09-12T06:24:18.354Z,9.60
2022-09-12T06:27:30.274Z,9.70
2022-09-12T06:32:49.552Z,10.10
2022-09-12T06:35:22.333Z,10.20
2022-09-12T06:37:53.544Z,10.90
2022-09-12T06:41:35.181Z,12.60
2022-09-12T06:44:07.854Z,11.20
2022-09-12T06:50:56.204Z,11.10
2022-09-12T06:53:28.157Z,11.70
2022-09-12T06:55:57.911Z,11.70
2022-09-12T06:58:26.905Z,11.40
2022-09-12T07:01:12.165Z,12.00
2022-09-12T07:03:40.632Z,12.10
2022-09-12T07:06:13.605Z,12.30
2022-09-12T07:08:41.834Z,12.50
2022-09-12T07:11:12.877Z,12.60
2022-09-12T07:13:42.067Z,11.10
2022-09-12T07:16:10.859Z,12.90
2022-09-12T07:22:31.625Z,12.90
2022-09-12T07:25:00.371Z,13.10
2022-09-12T07:27:39.632Z,13.30
2022-09-12T07:32:46.414Z,13.50
2022-09-12T07:38:06.417Z,13.70
2022-09-12T07:40:40.976Z,13.90
2022-09-12T07:43:34.054Z,14.20
2022-09-12T07:46:37.412Z,14.00
2022-09-12T07:49:29.587Z,14.20
2022-09-12T07:51:57.552Z,15.00
2022-09-12T07:54:25.627Z,14.60
2022-09-12T07:56:56.938Z,14.60
2022-09-12T07:59:50.819Z,14.00
2022-09-12T08:02:17.223Z,14.70
2022-09-12T08:04:45.440Z,14.70
2022-09-12T08:07:26.838Z,14.80
2022-09-12T08:09:58.113Z,15.30
2022-09-12T08:12:56.795Z,15.40
2022-09-12T08:18:50.254Z,15.20
2022-09-12T08:21:50.972Z,15.50
2022-09-12T08:24:27.176Z,15.60
2022-09-12T08:26:57.059Z,15.60
2022-09-12T08:42:51.320Z,16.30
2022-09-12T08:45:54.142Z,15.50
2022-09-12T08:48:43.726Z,16.60
2022-09-12T08:51:14.333Z,17.10
2022-09-12T08:53:45.200Z,17.00
2022-09-12T08:56:15.132Z,17.10
2022-09-12T08:58:46.457Z,17.10
2022-09-12T09:01:53.744Z,17.10
2022-09-12T09:04:45.585Z,17.10
2022-09-12T09:07:28.156Z,17.20
2022-09-12T09:10:19.526Z,17.20
2022-09-12T09:13:06.453Z,17.20
2022-09-12T09:16:42.422Z,17.50
2022-09-12T09:19:37.841Z,17.70
2022-09-12T09:22:15.418Z,17.90
2022-09-12T09:25:22.709Z,17.90
2022-09-12T09:28:11.337Z,17.70
2022-09-12T09:30:43.073Z,17.60
2022-09-12T09:33:22.119Z,17.70
2022-09-12T09:40:05.430Z,17.90
2022-09-12T09:43:02.777Z,17.90
2022-09-12T09:45:31.310Z,18.00
2022-09-12T09:47:59.552Z,17.90
2022-09-12T10:02:34.988Z,18.60
2022-09-12T10:05:04.700Z,18.70
2022-09-12T10:07:33.766Z,18.70
2022-09-12T10:10:39.205Z,18.20
2022-09-12T10:13:11.669Z,19.60
2022-09-12T10:16:20.385Z,20.10
2022-09-12T10:19:11.337Z,20.70
2022-09-12T10:21:59.924Z,21.30
2022-09-12T10:24:48.320Z,21.40
2022-09-12T10:27:22.194Z,21.30
2022-09-12T10:30:07.231Z,21.10
2022-09-12T10:35:46.349Z,21.40
2022-09-12T10:38:35.559Z,21.60
2022-09-12T10:41:11.549Z,21.90
2022-09-12T10:43:48.684Z,22.20
2022-09-12T10:46:16.956Z,22.20
2022-09-12T11:08:06.133Z,21.70
2022-09-12T11:29:47.855Z,20.90
2022-09-12T11:32:46.865Z,20.90
2022-09-12T11:36:08.726Z,21.20
2022-09-12T11:39:13.601Z,21.60
2022-09-12T11:41:50.583Z,21.10
2022-09-12T11:44:40.018Z,19.20
2022-09-12T11:47:12.663Z,20.90
2022-09-12T11:49:54.918Z,20.90
2022-09-12T11:52:33.928Z,20.90
2022-09-12T11:55:08.755Z,20.90
2022-09-12T11:57:49.449Z,21.00
2022-09-12T12:00:21.527Z,21.10
2022-09-12T12:03:11.319Z,21.10
2022-09-12T12:06:00.038Z,20.90
2022-09-12T12:08:32.418Z,20.80
2022-09-12T12:11:07.845Z,20.60
2022-09-12T12:13:58.853Z,20.40
2022-09-12T12:16:38.960Z,20.50
2022-09-12T12:19:15.912Z,20.50
2022-09-12T12:21:44.238Z,20.10
2022-09-12T12:24:25.829Z,19.60
2022-09-12T12:27:00.004Z,19.20
2022-09-12T12:29:44.086Z,18.70
2022-09-12T12:32:11.896Z,18.30
2022-09-12T12:34:42.821Z,18.10
2022-09-12T12:37:19.148Z,17.70
2022-09-12T12:39:55.446Z,15.40
2022-09-12T12:42:35.108Z,17.40
2022-09-12T12:45:23.777Z,17.20
2022-09-12T12:47:58.087Z,17.10
2022-09-12T12:50:28.576Z,17.00
2022-09-12T12:53:05.372Z,17.00
2022-09-12T12:55:47.561Z,17.10
2022-09-12T12:58:37.463Z,17.00
2022-09-12T13:01:17.916Z,16.90
2022-09-12T13:03:55.887Z,16.00
2022-09-12T13:06:31.553Z,16.70
2022-09-12T13:09:06.683Z,16.80
2022-09-12T13:11:40.811Z,16.80
2022-09-12T13:14:35.825Z,16.70
2022-09-12T13:17:06.747Z,16.70
2022-09-12T13:19:37.429Z,16.50
2022-09-12T13:22:09.845Z,15.80
2022-09-12T13:24:49.326Z,16.40
2022-09-12T13:27:25.907Z,16.20
2022-09-12T13:30:14.846Z,16.20
2022-09-12T13:32:43.831Z,16.20
2022-09-12T13:35:27.557Z,16.20
2022-09-12T13:38:22.083Z,16.20
2022-09-12T13:41:15.836Z,16.20
2022-09-12T13:43:47.249Z,16.20
2022-09-12T13:46:20.538Z,16.00
2022-09-12T13:48:50.794Z,16.00
2022-09-12T13:51:28.930Z,15.90
2022-09-12T13:54:00.191Z,15.90
2022-09-12T13:56:27.534Z,15.80
2022-09-12T13:59:03.119Z,15.80
2022-09-12T14:01:42.723Z,15.80
2022-09-12T14:04:37.570Z,15.80
2022-09-12T14:07:20.806Z,15.70
2022-09-12T14:09:59.719Z,15.70
2022-09-12T14:12:43.579Z,15.70
2022-09-12T14:15:30.614Z,15.60
2022-09-12T14:18:01.839Z,15.50
2022-09-12T14:20:37.300Z,15.50
2022-09-12T14:23:33.319Z,15.50
2022-09-12T14:26:03.635Z,15.40
2022-09-12T14:28:33.191Z,15.50
2022-09-12T14:31:05.214Z,15.40
2022-09-12T14:33:47.360Z,15.50
2022-09-12T14:36:58.197Z,15.50
2022-09-12T14:39:42.939Z,15.50
2022-09-12T14:42:36.451Z,15.50
2022-09-12T14:45:18.268Z,15.40
2022-09-12T14:47:50.813Z,15.40
2022-09-12T14:50:22.955Z,15.40
2022-09-12T14:53:07.540Z,15.40
2022-09-12T14:55:42.400Z,15.30
2022-09-12T14:58:26.735Z,15.30
2022-09-12T15:01:21.273Z,15.20
2022-09-12T15:03:52.123Z,15.10
2022-09-12T15:06:29.723Z,14.10
2022-09-12T15:09:03.353Z,15.00
2022-09-12T15:11:30.909Z,14.90
2022-09-12T15:13:59.823Z,14.80
2022-09-12T15:16:27.363Z,14.80
2022-09-12T15:18:55.110Z,14.70
2022-09-12T15:21:22.776Z,14.70
2022-09-12T15:23:51.608Z,14.70
2022-09-12T15:26:24.435Z,14.70
2022-09-12T15:28:53.716Z,14.70
2022-09-12T15:31:28.559Z,14.60
2022-09-12T15:33:58.591Z,14.60
2022-09-12T15:36:27.600Z,14.60
2022-09-12T15:38:55.466Z,14.60
2022-09-12T15:41:31.742Z,14.50
2022-09-12T15:43:59.557Z,14.50
2022-09-12T15:46:27.194Z,14.50
2022-09-12T15:48:54.710Z,14.50
2022-09-12T15:51:22.993Z,14.40
2022-09-12T15:53:51.858Z,14.30
2022-09-12T15:56:21.496Z,14.30
2022-09-12T15:58:58.655Z,14.20
2022-09-12T16:01:28.096Z,14.30
2022-09-12T16:03:55.790Z,14.30
2022-09-12T16:06:23.729Z,14.30
2022-09-12T16:08:51.437Z,14.30
2022-09-12T16:11:25.237Z,14.30
2022-09-12T16:13:54.091Z,14.30
2022-09-12T16:16:22.382Z,14.20
2022-09-12T16:18:50.268Z,14.20
2022-09-12T16:21:18.348Z,14.20
2022-09-12T16:23:47.196Z,14.10
2022-09-12T16:26:16.084Z,14.10
2022-09-12T16:28:43.914Z,14.10
2022-09-12T16:31:14.155Z,14.00
2022-09-12T16:33:42.023Z,14.00
2022-09-12T16:36:14.849Z,14.00
2022-09-12T16:38:44.602Z,13.90
2022-09-12T16:41:12.912Z,13.90
2022-09-12T16:43:40.639Z,13.90
2022-09-12T16:46:17.289Z,13.90
2022-09-12T16:48:52.313Z,13.90
2022-09-12T16:51:26.328Z,13.90
2022-09-12T16:53:55.355Z,13.80
2022-09-12T16:56:23.761Z,13.70
2022-09-12T16:58:52.364Z,13.80
2022-09-12T17:01:23.461Z,13.70
2022-09-12T17:03:56.372Z,13.70
2022-09-12T17:06:25.386Z,13.60
2022-09-12T17:08:54.805Z,13.50
2022-09-12T17:11:34.831Z,13.40
2022-09-12T17:14:06.893Z,13.40
2022-09-12T17:16:37.478Z,13.40
2022-09-12T17:19:05.982Z,13.40
2022-09-12T17:21:34.675Z,13.40
2022-09-12T17:24:02.583Z,13.50
2022-09-12T17:26:30.343Z,13.50
2022-09-12T17:28:58.022Z,13.50
2022-09-12T17:31:25.760Z,13.50
2022-09-12T17:33:59.894Z,13.40
2022-09-12T17:36:28.449Z,13.40
2022-09-12T17:38:56.333Z,13.50
2022-09-12T17:41:26.158Z,13.40
2022-09-12T17:43:57.478Z,13.40
2022-09-12T17:46:35.373Z,13.40
2022-09-12T17:49:12.198Z,13.40
2022-09-12T17:51:40.610Z,13.40
2022-09-12T17:54:12.200Z,13.40
2022-09-12T17:56:40.405Z,13.30
2022-09-12T17:59:11.195Z,13.30
2022-09-12T18:01:57.682Z,13.30
2022-09-12T18:04:25.410Z,13.20
2022-09-12T18:06:53.327Z,13.10
2022-09-12T18:09:23.651Z,12.90
2022-09-12T18:11:52.309Z,12.80
2022-09-12T18:14:22.213Z,12.80
2022-09-12T18:16:50.242Z,12.80
2022-09-12T18:19:17.950Z,12.70
2022-09-12T18:21:46.353Z,12.70
2022-09-12T18:24:14.416Z,12.60
2022-09-12T18:26:43.896Z,12.50
2022-09-12T18:29:12.598Z,12.40
2022-09-12T18:31:40.203Z,12.50
2022-09-12T18:34:12.767Z,12.40
2022-09-12T18:36:45.353Z,12.30
2022-09-12T18:39:14.293Z,12.30
2022-09-12T18:41:42.273Z,12.30
2022-09-12T18:44:12.949Z,12.40
2022-09-12T18:46:40.462Z,12.40
2022-09-12T18:49:09.519Z,12.40
2022-09-12T18:51:37.601Z,12.40
2022-09-12T18:54:08.920Z,12.50
2022-09-12T18:56:38.695Z,12.40
2022-09-12T18:59:07.496Z,12.50
2022-09-12T19:01:37.329Z,12.50
2022-09-12T19:04:07.945Z,12.50
2022-09-12T19:06:38.694Z,12.40
2022-09-12T19:09:08.408Z,12.40
2022-09-12T19:11:38.680Z,12.40
2022-09-12T19:14:07.800Z,12.40
2022-09-12T19:16:35.673Z,12.50
2022-09-12T19:19:03.719Z,12.50
2022-09-12T19:21:33.426Z,12.00
2022-09-12T19:24:06.804Z,12.40
2022-09-12T19:26:34.863Z,12.40
2022-09-12T19:29:03.438Z,12.40
2022-09-12T19:31:32.093Z,12.40
2022-09-12T19:34:04.113Z,12.60
2022-09-12T19:36:48.117Z,12.50
2022-09-12T19:39:20.007Z,12.50
2022-09-12T19:41:48.063Z,12.50
2022-09-12T19:44:15.558Z,12.50
2022-09-12T19:46:43.203Z,12.60
2022-09-12T19:49:12.359Z,12.60
2022-09-12T19:51:40.128Z,12.60
2022-09-12T19:54:08.027Z,12.50
2022-09-12T19:56:35.471Z,12.50
2022-09-12T19:59:03.027Z,12.50
2022-09-12T20:01:30.747Z,12.50
2022-09-12T20:03:59.263Z,12.50
2022-09-12T20:06:27.666Z,12.50
2022-09-12T20:08:56.443Z,12.50
2022-09-12T20:11:24.759Z,12.50
2022-09-12T20:13:55.695Z,12.50
2022-09-12T20:16:29.369Z,12.40
2022-09-12T20:19:01.860Z,12.40
2022-09-12T20:21:32.341Z,12.30
2022-09-12T20:24:02.246Z,12.30
2022-09-12T20:26:30.869Z,12.40
2022-09-12T20:28:58.724Z,12.30
2022-09-12T20:31:26.323Z,12.30
2022-09-12T20:33:54.918Z,12.30
2022-09-12T20:36:22.439Z,12.30
2022-09-12T20:38:57.029Z,12.20
2022-09-12T20:41:28.826Z,12.20
2022-09-12T20:43:57.075Z,12.20
2022-09-12T20:46:26.213Z,12.30
2022-09-12T20:48:58.635Z,12.20
2022-09-12T20:51:26.901Z,12.20
2022-09-12T20:53:55.305Z,12.20
2022-09-12T20:56:23.854Z,12.20
2022-09-12T20:58:51.831Z,12.10
2022-09-12T21:01:20.206Z,12.10
2022-09-12T21:03:48.536Z,12.10
2022-09-12T21:06:17.156Z,12.10
2022-09-12T21:08:46.636Z,12.10
2022-09-12T21:11:15.550Z,12.10
2022-09-12T21:13:43.391Z,12.00
2022-09-12T21:16:20.425Z,12.00
2022-09-12T21:18:52.608Z,12.50
2022-09-12T21:21:20.085Z,12.00
2022-09-12T21:23:48.108Z,12.00
2022-09-12T21:26:15.700Z,12.00
2022-09-12T21:28:43.272Z,12.00
2022-09-12T21:31:10.784Z,11.90
2022-09-12T21:33:38.441Z,12.00
2022-09-12T21:36:07.256Z,12.00
2022-09-12T21:38:35.115Z,11.90
2022-09-12T21:41:07.636Z,11.90
2022-09-12T21:43:35.942Z,11.90
2022-09-12T21:46:04.854Z,11.90
2022-09-12T21:48:32.940Z,11.90
2022-09-12T21:51:00.650Z,11.90
2022-09-12T21:53:28.467Z,11.90
2022-09-12T21:56:03.013Z,11.80
2022-09-12T21:58:30.643Z,11.80
2022-09-12T22:00:58.173Z,11.80
2022-09-12T22:03:26.692Z,11.80
2022-09-12T22:06:02.986Z,11.80
2022-09-12T22:08:32.038Z,11.80
2022-09-12T22:11:02.377Z,11.80
2022-09-12T22:13:34.009Z,11.70
2022-09-12T22:16:03.552Z,11.70
2022-09-12T22:18:35.864Z,11.70
2022-09-12T22:21:24.814Z,11.70
2022-09-12T22:24:10.919Z,11.70
2022-09-12T22:26:47.229Z,11.60
2022-09-12T22:29:15.877Z,11.60
2022-09-12T22:31:43.433Z,11.50
2022-09-12T22:34:10.929Z,11.50
2022-09-12T22:36:39.233Z,11.50
2022-09-12T22:39:07.462Z,11.50
2022-09-12T22:41:34.950Z,11.50
2022-09-12T22:44:04.269Z,11.50
2022-09-12T22:46:32.543Z,11.60
2022-09-12T22:49:00.765Z,11.50
2022-09-12T22:51:28.431Z,11.50
2022-09-12T22:53:56.601Z,11.50
2022-09-12T22:56:24.248Z,11.50
2022-09-12T22:58:52.087Z,11.40
2022-09-12T23:01:19.842Z,11.40
2022-09-12T23:03:47.489Z,11.30
2022-09-12T23:06:15.148Z,11.30
2022-09-12T23:08:42.699Z,11.30
2022-09-12T23:11:13.155Z,11.30
2022-09-12T23:13:43.957Z,11.30
2022-09-12T23:16:16.639Z,11.30
2022-09-12T23:18:44.513Z,11.30
2022-09-12T23:21:13.548Z,11.30
2022-09-12T23:23:41.094Z,11.30
2022-09-12T23:26:15.115Z,11.30
2022-09-12T23:28:48.062Z,11.30
2022-09-12T23:31:17.260Z,11.30
2022-09-12T23:33:45.453Z,11.30
2022-09-12T23:36:16.827Z,11.30
2022-09-12T23:38:45.929Z,11.30
2022-09-12T23:41:15.166Z,11.50
2022-09-12T23:43:46.023Z,11.30
2022-09-12T23:46:15.472Z,11.90
2022-09-12T23:48:43.361Z,11.20
2022-09-12T23:51:11.524Z,11.10
2022-09-12T23:53:39.491Z,11.10
2022-09-12T23:56:07.634Z,11.20
2022-09-12T23:58:35.131Z,11.20
